createdAt,value
2022-09-22T00:03:39.517Z,9.90
2022-09-22T00:08:35.036Z,9.70
2022-09-22T00:13:27.015Z,9.50
2022-09-22T00:18:18.680Z,9.20
2022-09-22T00:23:10.437Z,9.10
2022-09-22T00:28:06.060Z,9.00
2022-09-22T00:32:57.860Z,8.90
2022-09-22T00:37:49.513Z,8.80
2022-09-22T00:42:41.517Z,8.60
2022-09-22T00:47:44.464Z,8.50
2022-09-22T00:52:48.693Z,8.50
2022-09-22T00:57:44.447Z,8.40
2022-09-22T01:02:36.248Z,8.40
2022-09-22T01:07:30.798Z,8.40
2022-09-22T01:40:30.381Z,7.90
2022-09-22T01:45:29.659Z,7.80
2022-09-22T01:50:30.374Z,7.70
2022-09-22T01:55:31.288Z,7.70
2022-09-22T02:00:23.859Z,7.70
2022-09-22T02:06:01.597Z,7.80
2022-09-22T02:10:58.693Z,7.90
2022-09-22T02:16:02.792Z,8.00
2022-09-22T02:20:54.529Z,8.10
2022-09-22T02:25:54.244Z,8.00
2022-09-22T02:36:12.471Z,7.70
2022-09-22T02:41:27.704Z,7.50
2022-09-22T02:46:43.499Z,7.40
2022-09-22T02:51:36.196Z,7.30
2022-09-22T02:56:28.263Z,7.30
2022-09-22T03:01:19.955Z,7.20
2022-09-22T03:06:15.680Z,7.20
2022-09-22T03:11:07.375Z,7.20
2022-09-22T03:15:59.074Z,7.00
2022-09-22T03:20:50.793Z,7.10
2022-09-22T03:25:42.637Z,7.00
2022-09-22T03:30:37.099Z,7.00
2022-09-22T03:35:29.333Z,7.00
2022-09-22T03:40:22.238Z,7.00
2022-09-22T03:45:14.945Z,6.90
2022-09-22T03:50:08.069Z,7.10
2022-09-22T03:54:59.951Z,7.30
2022-09-22T03:59:52.239Z,7.20
2022-09-22T04:14:57.941Z,6.80
2022-09-22T04:35:16.064Z,6.70
2022-09-22T05:06:26.616Z,6.50
2022-09-22T05:16:35.777Z,6.60
2022-09-22T05:52:03.310Z,8.20
2022-09-22T06:07:08.760Z,10.40
2022-09-22T06:37:52.678Z,11.30
2022-09-22T07:34:15.376Z,11.70
2022-09-22T08:36:02.220Z,12.90
2022-09-22T09:30:50.928Z,13.60
2022-09-22T10:02:33.697Z,14.00
2022-09-22T11:00:47.843Z,15.30
2022-09-22T17:33:39.613Z,15.20
2022-09-22T17:59:59.944Z,14.80
2022-09-22T18:04:57.109Z,14.60
2022-09-22T18:15:04.297Z,14.30
2022-09-22T18:19:58.979Z,14.20
2022-09-22T18:35:14.300Z,14.00
2022-09-22T18:40:11.064Z,14.00
2022-09-22T18:50:11.505Z,13.80
2022-09-22T18:55:05.588Z,13.60
2022-09-22T19:00:02.861Z,13.50
2022-09-22T19:04:55.618Z,13.30
2022-09-22T19:14:58.009Z,12.90
2022-09-22T19:19:51.516Z,12.80
2022-09-22T19:40:11.356Z,12.00
2022-09-22T19:45:04.978Z,11.90
2022-09-22T19:49:58.471Z,11.80
2022-09-22T19:54:50.568Z,11.60
2022-09-22T19:59:47.937Z,11.50
2022-09-22T20:04:40.485Z,11.30
2022-09-22T20:09:34.218Z,11.30
2022-09-22T20:14:29.309Z,11.30
2022-09-22T20:19:24.588Z,11.10
2022-09-22T20:24:20.307Z,11.20
2022-09-22T20:29:18.328Z,11.10
2022-09-22T20:34:19.387Z,11.00
2022-09-22T20:39:15.221Z,10.90
2022-09-22T20:44:12.660Z,10.80
2022-09-22T20:49:05.991Z,10.70
2022-09-22T20:59:06.573Z,10.60
2022-09-22T21:03:59.474Z,10.40
2022-09-22T21:09:10.579Z,10.40
2022-09-22T21:14:06.545Z,10.10
2022-09-22T21:19:03.875Z,10.00
2022-09-22T21:24:00.124Z,9.80
2022-09-22T21:28:52.728Z,9.70
2022-09-22T21:33:44.840Z,9.70
2022-09-22T21:38:39.466Z,9.60
2022-09-22T21:43:32.535Z,9.50
2022-09-22T21:48:25.385Z,9.50
2022-09-22T21:53:20.831Z,9.40
2022-09-22T21:58:12.569Z,9.30
2022-09-22T22:03:24.525Z,9.30
2022-09-22T22:13:22.486Z,9.20
2022-09-22T22:18:21.749Z,9.20
2022-09-22T22:23:14.451Z,9.10
2022-09-22T22:28:08.771Z,9.20
2022-09-22T22:33:00.452Z,9.20
2022-09-22T22:37:52.150Z,9.10
2022-09-22T22:42:44.181Z,9.20
2022-09-22T22:47:36.034Z,9.30
2022-09-22T22:52:28.212Z,9.10
2022-09-22T22:57:23.971Z,8.90
2022-09-22T23:02:16.006Z,8.80
2022-09-22T23:07:07.955Z,8.80
2022-09-22T23:11:59.781Z,8.70
2022-09-22T23:16:55.057Z,8.70
2022-09-22T23:21:47.177Z,8.70
2022-09-22T23:26:38.869Z,8.80
2022-09-22T23:31:31.435Z,8.70
2022-09-22T23:36:28.827Z,8.50
2022-09-22T23:56:53.682Z,8.30
